sensor_id;sensor_type;location;lat;lon;timestamp;P1;durP1;ratioP1;P2;durP2;ratioP2
80679;SDS011;70043;51.982;-8.514;2023-07-13T00:01:48;1.60;;;0.80;;
80679;SDS011;70043;51.982;-8.514;2023-07-13T00:04:17;1.80;;;0.75;;
80679;SDS011;70043;51.982;-8.514;2023-07-13T00:06:47;1.88;;;0.70;;
80679;SDS011;70043;51.982;-8.514;2023-07-13T00:09:17;1.30;;;0.65;;
80679;SDS011;70043;51.982;-8.514;2023-07-13T00:14:48;1.13;;;0.70;;
80679;SDS011;70043;51.982;-8.514;2023-07-13T00:17:16;1.02;;;0.75;;
80679;SDS011;70043;51.982;-8.514;2023-07-13T00:19:47;3.88;;;0.90;;
80679;SDS011;70043;51.982;-8.514;2023-07-13T00:22:15;2.42;;;1.15;;
80679;SDS011;70043;51.982;-8.514;2023-07-13T00:24:44;1.00;;;0.63;;
80679;SDS011;70043;51.982;-8.514;2023-07-13T00:27:15;2.80;;;0.90;;
80679;SDS011;70043;51.982;-8.514;2023-07-13T00:29:45;6.45;;;0.90;;
80679;SDS011;70043;51.982;-8.514;2023-07-13T00:32:14;1.23;;;0.88;;
80679;SDS011;70043;51.982;-8.514;2023-07-13T00:34:42;3.83;;;1.00;;
80679;SDS011;70043;51.982;-8.514;2023-07-13T00:37:13;4.63;;;1.08;;
80679;SDS011;70043;51.982;-8.514;2023-07-13T00:39:43;2.15;;;1.00;;
80679;SDS011;70043;51.982;-8.514;2023-07-13T00:42:13;1.17;;;0.70;;
80679;SDS011;70043;51.982;-8.514;2023-07-13T00:47:32;1.48;;;0.80;;
80679;SDS011;70043;51.982;-8.514;2023-07-13T00:50:00;0.95;;;0.28;;
80679;SDS011;70043;51.982;-8.514;2023-07-13T00:52:32;0.50;;;0.50;;
80679;SDS011;70043;51.982;-8.514;2023-07-13T00:55:05;0.63;;;0.50;;
80679;SDS011;70043;51.982;-8.514;2023-07-13T00:57:41;0.47;;;0.38;;
80679;SDS011;70043;51.982;-8.514;2023-07-13T01:00:12;2.80;;;0.47;;
80679;SDS011;70043;51.982;-8.514;2023-07-13T01:02:42;1.17;;;0.50;;
80679;SDS011;70043;51.982;-8.514;2023-07-13T01:05:13;1.00;;;0.60;;
80679;SDS011;70043;51.982;-8.514;2023-07-13T01:07:44;0.20;;;0.20;;
80679;SDS011;70043;51.982;-8.514;2023-07-13T01:10:25;0.20;;;0.20;;
80679;SDS011;70043;51.982;-8.514;2023-07-13T01:12:55;0.82;;;0.50;;
80679;SDS011;70043;51.982;-8.514;2023-07-13T01:15:34;1.70;;;1.00;;
80679;SDS011;70043;51.982;-8.514;2023-07-13T01:18:04;1.40;;;0.50;;
80679;SDS011;70043;51.982;-8.514;2023-07-13T01:20:35;2.95;;;1.10;;
80679;SDS011;70043;51.982;-8.514;2023-07-13T01:23:11;1.48;;;1.02;;
80679;SDS011;70043;51.982;-8.514;2023-07-13T01:25:40;0.95;;;0.63;;
80679;SDS011;70043;51.982;-8.514;2023-07-13T01:28:08;2.55;;;0.90;;
80679;SDS011;70043;51.982;-8.514;2023-07-13T01:30:37;1.58;;;0.73;;
80679;SDS011;70043;51.982;-8.514;2023-07-13T01:33:10;3.08;;;0.98;;
80679;SDS011;70043;51.982;-8.514;2023-07-13T01:35:44;1.02;;;0.73;;
80679;SDS011;70043;51.982;-8.514;2023-07-13T01:38:17;2.00;;;0.93;;
80679;SDS011;70043;51.982;-8.514;2023-07-13T01:43:14;4.00;;;1.10;;
80679;SDS011;70043;51.982;-8.514;2023-07-13T01:45:43;0.98;;;0.70;;
80679;SDS011;70043;51.982;-8.514;2023-07-13T01:48:12;1.17;;;0.65;;
80679;SDS011;70043;51.982;-8.514;2023-07-13T01:50:40;2.47;;;1.05;;
80679;SDS011;70043;51.982;-8.514;2023-07-13T01:53:08;3.72;;;0.85;;
80679;SDS011;70043;51.982;-8.514;2023-07-13T01:55:39;4.38;;;1.08;;
80679;SDS011;70043;51.982;-8.514;2023-07-13T01:58:08;1.08;;;0.45;;
80679;SDS011;70043;51.982;-8.514;2023-07-13T02:00:36;1.48;;;0.60;;
80679;SDS011;70043;51.982;-8.514;2023-07-13T02:03:06;1.27;;;0.65;;
80679;SDS011;70043;51.982;-8.514;2023-07-13T02:05:34;1.40;;;0.47;;
80679;SDS011;70043;51.982;-8.514;2023-07-13T02:08:04;1.67;;;0.52;;
80679;SDS011;70043;51.982;-8.514;2023-07-13T02:10:33;1.63;;;0.65;;
80679;SDS011;70043;51.982;-8.514;2023-07-13T02:13:19;0.85;;;0.52;;
80679;SDS011;70043;51.982;-8.514;2023-07-13T02:15:49;4.80;;;0.95;;
80679;SDS011;70043;51.982;-8.514;2023-07-13T02:18:18;1.73;;;0.50;;
80679;SDS011;70043;51.982;-8.514;2023-07-13T02:20:48;0.63;;;0.55;;
80679;SDS011;70043;51.982;-8.514;2023-07-13T02:23:17;1.77;;;0.77;;
80679;SDS011;70043;51.982;-8.514;2023-07-13T02:25:45;0.10;;;0.10;;
80679;SDS011;70043;51.982;-8.514;2023-07-13T02:28:16;0.17;;;0.17;;
80679;SDS011;70043;51.982;-8.514;2023-07-13T02:30:44;5.68;;;1.38;;
80679;SDS011;70043;51.982;-8.514;2023-07-13T02:33:14;1.15;;;0.70;;
80679;SDS011;70043;51.982;-8.514;2023-07-13T02:35:42;0.35;;;0.20;;
80679;SDS011;70043;51.982;-8.514;2023-07-13T02:38:13;1.02;;;0.35;;
80679;SDS011;70043;51.982;-8.514;2023-07-13T02:40:42;0.10;;;0.10;;
80679;SDS011;70043;51.982;-8.514;2023-07-13T02:43:12;0.90;;;0.57;;
80679;SDS011;70043;51.982;-8.514;2023-07-13T02:45:48;0.57;;;0.30;;
80679;SDS011;70043;51.982;-8.514;2023-07-13T02:48:22;0.10;;;0.10;;
80679;SDS011;70043;51.982;-8.514;2023-07-13T02:50:50;3.67;;;1.10;;
80679;SDS011;70043;51.982;-8.514;2023-07-13T02:56:41;0.77;;;0.60;;
80679;SDS011;70043;51.982;-8.514;2023-07-13T02:59:11;10.00;;;1.00;;
80679;SDS011;70043;51.982;-8.514;2023-07-13T03:01:40;2.05;;;0.75;;
80679;SDS011;70043;51.982;-8.514;2023-07-13T03:04:09;1.20;;;0.50;;
80679;SDS011;70043;51.982;-8.514;2023-07-13T03:06:39;1.40;;;0.80;;
80679;SDS011;70043;51.982;-8.514;2023-07-13T03:09:08;1.13;;;0.60;;
80679;SDS011;70043;51.982;-8.514;2023-07-13T03:11:38;0.98;;;0.40;;
80679;SDS011;70043;51.982;-8.514;2023-07-13T03:14:06;1.20;;;0.80;;
80679;SDS011;70043;51.982;-8.514;2023-07-13T03:16:38;1.35;;;0.88;;
80679;SDS011;70043;51.982;-8.514;2023-07-13T03:19:07;1.27;;;0.68;;
80679;SDS011;70043;51.982;-8.514;2023-07-13T03:21:36;2.50;;;1.02;;
80679;SDS011;70043;51.982;-8.514;2023-07-13T03:24:06;3.38;;;0.80;;
80679;SDS011;70043;51.982;-8.514;2023-07-13T03:26:35;2.22;;;0.77;;
80679;SDS011;70043;51.982;-8.514;2023-07-13T03:29:04;1.63;;;0.93;;
80679;SDS011;70043;51.982;-8.514;2023-07-13T03:31:39;3.28;;;0.90;;
80679;SDS011;70043;51.982;-8.514;2023-07-13T03:34:12;1.00;;;0.90;;
80679;SDS011;70043;51.982;-8.514;2023-07-13T03:36:42;1.70;;;1.13;;
80679;SDS011;70043;51.982;-8.514;2023-07-13T03:42:03;0.65;;;0.45;;
80679;SDS011;70043;51.982;-8.514;2023-07-13T03:44:33;0.88;;;0.60;;
80679;SDS011;70043;51.982;-8.514;2023-07-13T03:47:04;1.20;;;0.77;;
80679;SDS011;70043;51.982;-8.514;2023-07-13T03:49:34;6.05;;;0.88;;
80679;SDS011;70043;51.982;-8.514;2023-07-13T03:52:07;1.02;;;0.57;;
80679;SDS011;70043;51.982;-8.514;2023-07-13T03:54:36;3.90;;;1.00;;
80679;SDS011;70043;51.982;-8.514;2023-07-13T03:57:05;4.18;;;0.80;;
80679;SDS011;70043;51.982;-8.514;2023-07-13T03:59:33;2.10;;;0.85;;
80679;SDS011;70043;51.982;-8.514;2023-07-13T04:02:05;3.30;;;1.20;;
80679;SDS011;70043;51.982;-8.514;2023-07-13T04:04:35;4.30;;;1.08;;
80679;SDS011;70043;51.982;-8.514;2023-07-13T04:07:07;2.65;;;1.15;;
80679;SDS011;70043;51.982;-8.514;2023-07-13T04:09:36;2.67;;;1.10;;
80679;SDS011;70043;51.982;-8.514;2023-07-13T04:12:06;3.33;;;1.17;;
80679;SDS011;70043;51.982;-8.514;2023-07-13T04:14:34;4.97;;;0.73;;
80679;SDS011;70043;51.982;-8.514;2023-07-13T04:17:02;3.13;;;0.90;;
80679;SDS011;70043;51.982;-8.514;2023-07-13T04:19:32;3.67;;;0.57;;
80679;SDS011;70043;51.982;-8.514;2023-07-13T04:22:02;1.33;;;0.73;;
80679;SDS011;70043;51.982;-8.514;2023-07-13T04:24:30;3.28;;;0.77;;
80679;SDS011;70043;51.982;-8.514;2023-07-13T04:27:00;4.45;;;1.33;;
80679;SDS011;70043;51.982;-8.514;2023-07-13T04:29:30;1.52;;;0.63;;
80679;SDS011;70043;51.982;-8.514;2023-07-13T04:32:00;4.05;;;1.15;;
80679;SDS011;70043;51.982;-8.514;2023-07-13T04:34:30;1.23;;;0.65;;
80679;SDS011;70043;51.982;-8.514;2023-07-13T04:37:00;1.45;;;0.68;;
80679;SDS011;70043;51.982;-8.514;2023-07-13T04:39:30;1.33;;;0.88;;
80679;SDS011;70043;51.982;-8.514;2023-07-13T04:41:59;2.03;;;0.80;;
80679;SDS011;70043;51.982;-8.514;2023-07-13T04:44:29;1.40;;;0.82;;
80679;SDS011;70043;51.982;-8.514;2023-07-13T04:46:59;2.35;;;0.98;;
80679;SDS011;70043;51.982;-8.514;2023-07-13T04:49:27;3.05;;;1.15;;
80679;SDS011;70043;51.982;-8.514;2023-07-13T04:52:02;2.63;;;0.77;;
80679;SDS011;70043;51.982;-8.514;2023-07-13T04:54:33;2.05;;;0.95;;
80679;SDS011;70043;51.982;-8.514;2023-07-13T04:57:07;0.82;;;0.55;;
80679;SDS011;70043;51.982;-8.514;2023-07-13T04:59:35;1.95;;;0.80;;
80679;SDS011;70043;51.982;-8.514;2023-07-13T05:02:03;1.55;;;1.15;;
80679;SDS011;70043;51.982;-8.514;2023-07-13T05:04:32;3.78;;;1.45;;
80679;SDS011;70043;51.982;-8.514;2023-07-13T05:07:07;2.38;;;1.38;;
80679;SDS011;70043;51.982;-8.514;2023-07-13T05:09:34;1.90;;;0.50;;
80679;SDS011;70043;51.982;-8.514;2023-07-13T05:12:06;2.00;;;0.98;;
80679;SDS011;70043;51.982;-8.514;2023-07-13T05:14:35;5.75;;;0.82;;
80679;SDS011;70043;51.982;-8.514;2023-07-13T05:17:03;1.25;;;0.95;;
80679;SDS011;70043;51.982;-8.514;2023-07-13T05:19:32;1.77;;;1.00;;
80679;SDS011;70043;51.982;-8.514;2023-07-13T05:22:00;1.98;;;1.00;;
80679;SDS011;70043;51.982;-8.514;2023-07-13T05:24:33;1.95;;;0.70;;
80679;SDS011;70043;51.982;-8.514;2023-07-13T05:27:02;1.58;;;0.93;;
80679;SDS011;70043;51.982;-8.514;2023-07-13T05:29:31;3.67;;;1.05;;
80679;SDS011;70043;51.982;-8.514;2023-07-13T05:31:59;4.47;;;0.93;;
80679;SDS011;70043;51.982;-8.514;2023-07-13T05:34:35;1.40;;;0.90;;
80679;SDS011;70043;51.982;-8.514;2023-07-13T05:37:04;1.02;;;0.63;;
80679;SDS011;70043;51.982;-8.514;2023-07-13T05:39:34;3.20;;;1.00;;
80679;SDS011;70043;51.982;-8.514;2023-07-13T05:42:04;1.30;;;0.70;;
80679;SDS011;70043;51.982;-8.514;2023-07-13T05:44:34;2.50;;;0.75;;
80679;SDS011;70043;51.982;-8.514;2023-07-13T05:47:02;2.30;;;0.60;;
80679;SDS011;70043;51.982;-8.514;2023-07-13T05:49:34;1.10;;;0.63;;
80679;SDS011;70043;51.982;-8.514;2023-07-13T05:54:31;2.78;;;1.13;;
80679;SDS011;70043;51.982;-8.514;2023-07-13T05:57:04;1.02;;;0.55;;
80679;SDS011;70043;51.982;-8.514;2023-07-13T05:59:33;2.17;;;0.40;;
80679;SDS011;70043;51.982;-8.514;2023-07-13T06:02:02;0.90;;;0.43;;
80679;SDS011;70043;51.982;-8.514;2023-07-13T06:04:32;1.73;;;0.65;;
80679;SDS011;70043;51.982;-8.514;2023-07-13T06:07:00;2.70;;;1.08;;
80679;SDS011;70043;51.982;-8.514;2023-07-13T06:09:28;1.08;;;0.63;;
80679;SDS011;70043;51.982;-8.514;2023-07-13T06:12:00;1.92;;;0.77;;
80679;SDS011;70043;51.982;-8.514;2023-07-13T06:14:31;2.10;;;1.10;;
80679;SDS011;70043;51.982;-8.514;2023-07-13T06:17:00;1.58;;;0.70;;
80679;SDS011;70043;51.982;-8.514;2023-07-13T06:19:30;1.52;;;0.63;;
80679;SDS011;70043;51.982;-8.514;2023-07-13T06:21:59;2.72;;;0.68;;
80679;SDS011;70043;51.982;-8.514;2023-07-13T06:24:28;2.20;;;0.90;;
80679;SDS011;70043;51.982;-8.514;2023-07-13T06:27:05;2.38;;;1.10;;
80679;SDS011;70043;51.982;-8.514;2023-07-13T06:29:32;1.48;;;1.02;;
80679;SDS011;70043;51.982;-8.514;2023-07-13T06:32:04;5.25;;;0.85;;
80679;SDS011;70043;51.982;-8.514;2023-07-13T06:34:33;1.23;;;0.63;;
80679;SDS011;70043;51.982;-8.514;2023-07-13T06:37:02;2.60;;;1.00;;
80679;SDS011;70043;51.982;-8.514;2023-07-13T06:39:32;1.83;;;1.20;;
80679;SDS011;70043;51.982;-8.514;2023-07-13T06:42:01;0.95;;;0.60;;
80679;SDS011;70043;51.982;-8.514;2023-07-13T06:44:30;0.75;;;0.50;;
80679;SDS011;70043;51.982;-8.514;2023-07-13T06:46:58;4.18;;;1.23;;
80679;SDS011;70043;51.982;-8.514;2023-07-13T06:49:27;2.78;;;0.80;;
80679;SDS011;70043;51.982;-8.514;2023-07-13T06:51:55;2.05;;;1.10;;
80679;SDS011;70043;51.982;-8.514;2023-07-13T06:54:24;1.27;;;0.80;;
80679;SDS011;70043;51.982;-8.514;2023-07-13T06:56:55;1.75;;;0.95;;
80679;SDS011;70043;51.982;-8.514;2023-07-13T06:59:25;2.70;;;1.13;;
80679;SDS011;70043;51.982;-8.514;2023-07-13T07:01:54;2.78;;;1.00;;
80679;SDS011;70043;51.982;-8.514;2023-07-13T07:04:22;2.70;;;1.02;;
80679;SDS011;70043;51.982;-8.514;2023-07-13T07:06:52;1.50;;;0.70;;
80679;SDS011;70043;51.982;-8.514;2023-07-13T07:09:20;3.58;;;0.80;;
80679;SDS011;70043;51.982;-8.514;2023-07-13T07:11:49;5.40;;;0.88;;
80679;SDS011;70043;51.982;-8.514;2023-07-13T07:14:17;2.22;;;1.20;;
80679;SDS011;70043;51.982;-8.514;2023-07-13T07:16:47;4.32;;;1.25;;
80679;SDS011;70043;51.982;-8.514;2023-07-13T07:19:16;2.63;;;0.90;;
80679;SDS011;70043;51.982;-8.514;2023-07-13T07:21:45;2.03;;;1.02;;
80679;SDS011;70043;51.982;-8.514;2023-07-13T07:24:15;0.75;;;0.63;;
80679;SDS011;70043;51.982;-8.514;2023-07-13T07:26:44;2.20;;;1.13;;
80679;SDS011;70043;51.982;-8.514;2023-07-13T07:29:13;3.63;;;1.30;;
80679;SDS011;70043;51.982;-8.514;2023-07-13T07:31:42;2.42;;;0.77;;
80679;SDS011;70043;51.982;-8.514;2023-07-13T07:34:13;1.45;;;0.73;;
80679;SDS011;70043;51.982;-8.514;2023-07-13T07:36:42;4.00;;;1.55;;
80679;SDS011;70043;51.982;-8.514;2023-07-13T07:39:10;1.60;;;1.08;;
80679;SDS011;70043;51.982;-8.514;2023-07-13T07:41:38;2.95;;;0.90;;
80679;SDS011;70043;51.982;-8.514;2023-07-13T07:44:08;3.08;;;0.88;;
80679;SDS011;70043;51.982;-8.514;2023-07-13T07:46:38;1.88;;;1.00;;
80679;SDS011;70043;51.982;-8.514;2023-07-13T07:49:07;2.13;;;1.10;;
80679;SDS011;70043;51.982;-8.514;2023-07-13T07:51:37;0.50;;;0.43;;
80679;SDS011;70043;51.982;-8.514;2023-07-13T07:54:08;1.27;;;0.88;;
80679;SDS011;70043;51.982;-8.514;2023-07-13T07:56:37;2.42;;;1.00;;
80679;SDS011;70043;51.982;-8.514;2023-07-13T07:59:07;2.92;;;1.40;;
80679;SDS011;70043;51.982;-8.514;2023-07-13T08:01:37;3.05;;;1.55;;
80679;SDS011;70043;51.982;-8.514;2023-07-13T08:04:05;2.58;;;1.50;;
80679;SDS011;70043;51.982;-8.514;2023-07-13T08:06:34;4.85;;;1.77;;
80679;SDS011;70043;51.982;-8.514;2023-07-13T08:09:05;7.47;;;1.50;;
80679;SDS011;70043;51.982;-8.514;2023-07-13T08:11:34;4.68;;;1.52;;
80679;SDS011;70043;51.982;-8.514;2023-07-13T08:14:02;3.03;;;1.30;;
80679;SDS011;70043;51.982;-8.514;2023-07-13T08:16:30;1.88;;;1.20;;
80679;SDS011;70043;51.982;-8.514;2023-07-13T08:18:59;1.92;;;1.02;;
80679;SDS011;70043;51.982;-8.514;2023-07-13T08:21:33;3.33;;;1.63;;
80679;SDS011;70043;51.982;-8.514;2023-07-13T08:24:09;3.47;;;1.48;;
80679;SDS011;70043;51.982;-8.514;2023-07-13T08:26:38;4.97;;;1.73;;
80679;SDS011;70043;51.982;-8.514;2023-07-13T08:29:07;3.50;;;1.48;;
80679;SDS011;70043;51.982;-8.514;2023-07-13T08:31:35;2.53;;;0.95;;
80679;SDS011;70043;51.982;-8.514;2023-07-13T08:34:04;2.53;;;1.35;;
80679;SDS011;70043;51.982;-8.514;2023-07-13T08:36:33;6.40;;;1.60;;
80679;SDS011;70043;51.982;-8.514;2023-07-13T08:39:05;1.80;;;1.13;;
80679;SDS011;70043;51.982;-8.514;2023-07-13T08:41:35;5.13;;;1.63;;
80679;SDS011;70043;51.982;-8.514;2023-07-13T08:44:04;3.78;;;1.55;;
80679;SDS011;70043;51.982;-8.514;2023-07-13T08:46:38;3.92;;;1.65;;
80679;SDS011;70043;51.982;-8.514;2023-07-13T08:49:09;3.70;;;2.03;;
80679;SDS011;70043;51.982;-8.514;2023-07-13T08:51:40;4.35;;;1.48;;
80679;SDS011;70043;51.982;-8.514;2023-07-13T08:54:16;2.83;;;1.58;;
80679;SDS011;70043;51.982;-8.514;2023-07-13T08:56:50;5.60;;;1.70;;
80679;SDS011;70043;51.982;-8.514;2023-07-13T08:59:24;5.32;;;1.50;;
80679;SDS011;70043;51.982;-8.514;2023-07-13T09:01:57;2.70;;;1.55;;
80679;SDS011;70043;51.982;-8.514;2023-07-13T09:04:36;11.10;;;1.52;;
80679;SDS011;70043;51.982;-8.514;2023-07-13T09:07:14;3.20;;;1.48;;
80679;SDS011;70043;51.982;-8.514;2023-07-13T09:09:52;5.05;;;1.48;;
80679;SDS011;70043;51.982;-8.514;2023-07-13T09:12:34;3.97;;;1.40;;
80679;SDS011;70043;51.982;-8.514;2023-07-13T09:15:24;4.25;;;2.63;;
80679;SDS011;70043;51.982;-8.514;2023-07-13T09:17:57;4.07;;;1.20;;
80679;SDS011;70043;51.982;-8.514;2023-07-13T09:20:30;3.13;;;1.35;;
80679;SDS011;70043;51.982;-8.514;2023-07-13T09:23:03;5.72;;;1.42;;
80679;SDS011;70043;51.982;-8.514;2023-07-13T09:25:35;2.42;;;1.35;;
80679;SDS011;70043;51.982;-8.514;2023-07-13T09:28:10;2.65;;;1.45;;
80679;SDS011;70043;51.982;-8.514;2023-07-13T09:30:45;4.82;;;1.40;;
80679;SDS011;70043;51.982;-8.514;2023-07-13T09:33:18;3.03;;;1.10;;
80679;SDS011;70043;51.982;-8.514;2023-07-13T09:35:48;2.28;;;1.23;;
80679;SDS011;70043;51.982;-8.514;2023-07-13T09:38:17;3.33;;;1.67;;
80679;SDS011;70043;51.982;-8.514;2023-07-13T09:43:48;2.28;;;1.30;;
80679;SDS011;70043;51.982;-8.514;2023-07-13T09:46:35;4.60;;;1.80;;
80679;SDS011;70043;51.982;-8.514;2023-07-13T09:49:04;6.07;;;1.40;;
80679;SDS011;70043;51.982;-8.514;2023-07-13T09:51:32;5.57;;;1.65;;
80679;SDS011;70043;51.982;-8.514;2023-07-13T09:54:01;5.03;;;1.70;;
80679;SDS011;70043;51.982;-8.514;2023-07-13T09:56:30;2.72;;;1.52;;
80679;SDS011;70043;51.982;-8.514;2023-07-13T09:59:00;6.05;;;2.20;;
80679;SDS011;70043;51.982;-8.514;2023-07-13T10:01:32;4.05;;;1.88;;
80679;SDS011;70043;51.982;-8.514;2023-07-13T10:04:02;3.30;;;1.23;;
80679;SDS011;70043;51.982;-8.514;2023-07-13T10:06:39;4.82;;;2.17;;
80679;SDS011;70043;51.982;-8.514;2023-07-13T10:09:08;10.40;;;2.47;;
80679;SDS011;70043;51.982;-8.514;2023-07-13T10:14:14;5.15;;;1.95;;
80679;SDS011;70043;51.982;-8.514;2023-07-13T10:16:43;3.88;;;2.22;;
80679;SDS011;70043;51.982;-8.514;2023-07-13T10:19:15;2.38;;;1.05;;
80679;SDS011;70043;51.982;-8.514;2023-07-13T10:21:50;3.17;;;1.52;;
80679;SDS011;70043;51.982;-8.514;2023-07-13T10:24:24;2.92;;;1.42;;
80679;SDS011;70043;51.982;-8.514;2023-07-13T10:26:55;5.38;;;1.70;;
80679;SDS011;70043;51.982;-8.514;2023-07-13T10:29:27;1.35;;;0.82;;
80679;SDS011;70043;51.982;-8.514;2023-07-13T10:31:56;3.00;;;1.55;;
80679;SDS011;70043;51.982;-8.514;2023-07-13T10:34:25;3.83;;;1.20;;
80679;SDS011;70043;51.982;-8.514;2023-07-13T10:36:53;2.60;;;0.95;;
80679;SDS011;70043;51.982;-8.514;2023-07-13T10:39:22;3.60;;;0.93;;
80679;SDS011;70043;51.982;-8.514;2023-07-13T10:41:52;1.60;;;0.85;;
80679;SDS011;70043;51.982;-8.514;2023-07-13T10:44:23;1.25;;;0.73;;
80679;SDS011;70043;51.982;-8.514;2023-07-13T10:46:57;2.13;;;0.68;;
80679;SDS011;70043;51.982;-8.514;2023-07-13T10:49:28;1.85;;;0.88;;
80679;SDS011;70043;51.982;-8.514;2023-07-13T10:51:58;1.77;;;0.68;;
80679;SDS011;70043;51.982;-8.514;2023-07-13T10:54:27;3.55;;;0.85;;
80679;SDS011;70043;51.982;-8.514;2023-07-13T10:57:07;2.40;;;1.15;;
80679;SDS011;70043;51.982;-8.514;2023-07-13T10:59:45;2.22;;;0.60;;
80679;SDS011;70043;51.982;-8.514;2023-07-13T11:02:17;1.80;;;0.70;;
80679;SDS011;70043;51.982;-8.514;2023-07-13T11:04:53;1.23;;;0.50;;
80679;SDS011;70043;51.982;-8.514;2023-07-13T11:07:23;0.85;;;0.55;;
80679;SDS011;70043;51.982;-8.514;2023-07-13T11:09:54;1.40;;;0.55;;
80679;SDS011;70043;51.982;-8.514;2023-07-13T11:12:28;1.13;;;0.60;;
80679;SDS011;70043;51.982;-8.514;2023-07-13T11:15:30;1.42;;;0.98;;
80679;SDS011;70043;51.982;-8.514;2023-07-13T11:18:12;1.00;;;0.68;;
80679;SDS011;70043;51.982;-8.514;2023-07-13T11:20:50;0.75;;;0.50;;
80679;SDS011;70043;51.982;-8.514;2023-07-13T11:26:02;0.68;;;0.50;;
80679;SDS011;70043;51.982;-8.514;2023-07-13T11:28:31;1.25;;;0.40;;
80679;SDS011;70043;51.982;-8.514;2023-07-13T11:31:03;1.85;;;0.95;;
80679;SDS011;70043;51.982;-8.514;2023-07-13T11:36:36;2.53;;;0.95;;
80679;SDS011;70043;51.982;-8.514;2023-07-13T11:39:11;2.50;;;1.02;;
80679;SDS011;70043;51.982;-8.514;2023-07-13T11:41:48;1.80;;;0.90;;
80679;SDS011;70043;51.982;-8.514;2023-07-13T11:44:18;1.65;;;0.75;;
80679;SDS011;70043;51.982;-8.514;2023-07-13T11:46:52;1.48;;;0.60;;
80679;SDS011;70043;51.982;-8.514;2023-07-13T11:49:22;1.90;;;0.60;;
80679;SDS011;70043;51.982;-8.514;2023-07-13T11:51:52;1.08;;;0.63;;
80679;SDS011;70043;51.982;-8.514;2023-07-13T11:54:23;1.98;;;0.50;;
80679;SDS011;70043;51.982;-8.514;2023-07-13T11:56:55;1.00;;;0.60;;
80679;SDS011;70043;51.982;-8.514;2023-07-13T11:59:26;0.90;;;0.55;;
80679;SDS011;70043;51.982;-8.514;2023-07-13T12:01:58;0.50;;;0.40;;
80679;SDS011;70043;51.982;-8.514;2023-07-13T12:04:29;1.27;;;0.63;;
80679;SDS011;70043;51.982;-8.514;2023-07-13T12:07:04;2.65;;;0.80;;
80679;SDS011;70043;51.982;-8.514;2023-07-13T12:09:34;3.70;;;0.98;;
80679;SDS011;70043;51.982;-8.514;2023-07-13T12:12:03;3.40;;;0.85;;
80679;SDS011;70043;51.982;-8.514;2023-07-13T12:14:39;2.38;;;0.98;;
80679;SDS011;70043;51.982;-8.514;2023-07-13T12:17:15;2.08;;;0.90;;
80679;SDS011;70043;51.982;-8.514;2023-07-13T12:19:46;1.88;;;0.93;;
80679;SDS011;70043;51.982;-8.514;2023-07-13T12:22:16;1.58;;;0.80;;
80679;SDS011;70043;51.982;-8.514;2023-07-13T12:24:48;4.30;;;0.70;;
80679;SDS011;70043;51.982;-8.514;2023-07-13T12:27:18;2.15;;;1.23;;
80679;SDS011;70043;51.982;-8.514;2023-07-13T12:29:51;2.22;;;1.20;;
80679;SDS011;70043;51.982;-8.514;2023-07-13T12:32:28;3.17;;;1.83;;
80679;SDS011;70043;51.982;-8.514;2023-07-13T12:35:13;1.45;;;0.77;;
80679;SDS011;70043;51.982;-8.514;2023-07-13T12:37:44;1.38;;;1.00;;
80679;SDS011;70043;51.982;-8.514;2023-07-13T12:40:14;2.30;;;0.93;;
80679;SDS011;70043;51.982;-8.514;2023-07-13T12:42:47;3.03;;;0.98;;
80679;SDS011;70043;51.982;-8.514;2023-07-13T12:45:18;2.03;;;1.17;;
80679;SDS011;70043;51.982;-8.514;2023-07-13T12:47:53;1.50;;;0.88;;
80679;SDS011;70043;51.982;-8.514;2023-07-13T12:50:28;2.45;;;1.15;;
80679;SDS011;70043;51.982;-8.514;2023-07-13T12:52:59;3.20;;;0.93;;
80679;SDS011;70043;51.982;-8.514;2023-07-13T12:55:37;3.15;;;0.80;;
80679;SDS011;70043;51.982;-8.514;2023-07-13T12:58:09;1.23;;;0.73;;
80679;SDS011;70043;51.982;-8.514;2023-07-13T13:00:47;3.97;;;1.25;;
80679;SDS011;70043;51.982;-8.514;2023-07-13T13:03:22;1.67;;;0.95;;
80679;SDS011;70043;51.982;-8.514;2023-07-13T13:05:57;0.63;;;0.32;;
80679;SDS011;70043;51.982;-8.514;2023-07-13T13:08:29;0.32;;;0.25;;
80679;SDS011;70043;51.982;-8.514;2023-07-13T13:10:59;0.82;;;0.47;;
80679;SDS011;70043;51.982;-8.514;2023-07-13T13:13:30;1.13;;;0.50;;
80679;SDS011;70043;51.982;-8.514;2023-07-13T13:16:01;2.55;;;0.60;;
80679;SDS011;70043;51.982;-8.514;2023-07-13T13:18:32;0.73;;;0.30;;
80679;SDS011;70043;51.982;-8.514;2023-07-13T13:21:01;1.23;;;0.40;;
80679;SDS011;70043;51.982;-8.514;2023-07-13T13:23:31;0.70;;;0.50;;
80679;SDS011;70043;51.982;-8.514;2023-07-13T13:25:59;1.27;;;0.55;;
80679;SDS011;70043;51.982;-8.514;2023-07-13T13:28:27;0.73;;;0.47;;
80679;SDS011;70043;51.982;-8.514;2023-07-13T13:30:55;1.15;;;0.40;;
80679;SDS011;70043;51.982;-8.514;2023-07-13T13:33:23;2.90;;;0.70;;
80679;SDS011;70043;51.982;-8.514;2023-07-13T13:35:54;2.22;;;0.73;;
80679;SDS011;70043;51.982;-8.514;2023-07-13T13:38:24;2.58;;;0.57;;
80679;SDS011;70043;51.982;-8.514;2023-07-13T13:40:53;0.75;;;0.50;;
80679;SDS011;70043;51.982;-8.514;2023-07-13T13:43:22;1.15;;;0.57;;
80679;SDS011;70043;51.982;-8.514;2023-07-13T13:45:52;2.38;;;0.57;;
80679;SDS011;70043;51.982;-8.514;2023-07-13T13:48:24;1.50;;;1.25;;
80679;SDS011;70043;51.982;-8.514;2023-07-13T13:50:58;2.28;;;0.88;;
80679;SDS011;70043;51.982;-8.514;2023-07-13T13:53:30;2.20;;;0.77;;
80679;SDS011;70043;51.982;-8.514;2023-07-13T13:55:58;2.47;;;0.98;;
80679;SDS011;70043;51.982;-8.514;2023-07-13T13:58:27;1.83;;;0.60;;
80679;SDS011;70043;51.982;-8.514;2023-07-13T14:00:56;1.60;;;0.65;;
80679;SDS011;70043;51.982;-8.514;2023-07-13T14:03:25;1.20;;;0.68;;
80679;SDS011;70043;51.982;-8.514;2023-07-13T14:05:54;0.47;;;0.30;;
80679;SDS011;70043;51.982;-8.514;2023-07-13T14:08:24;1.92;;;0.35;;
80679;SDS011;70043;51.982;-8.514;2023-07-13T14:10:53;0.57;;;0.47;;
80679;SDS011;70043;51.982;-8.514;2023-07-13T14:13:27;0.30;;;0.30;;
80679;SDS011;70043;51.982;-8.514;2023-07-13T14:16:02;1.42;;;0.15;;
80679;SDS011;70043;51.982;-8.514;2023-07-13T14:18:33;1.25;;;0.38;;
80679;SDS011;70043;51.982;-8.514;2023-07-13T14:21:07;1.30;;;0.60;;
80679;SDS011;70043;51.982;-8.514;2023-07-13T14:23:40;1.83;;;0.32;;
80679;SDS011;70043;51.982;-8.514;2023-07-13T14:26:12;1.17;;;0.47;;
80679;SDS011;70043;51.982;-8.514;2023-07-13T14:28:44;1.08;;;0.40;;
80679;SDS011;70043;51.982;-8.514;2023-07-13T14:31:20;0.93;;;0.45;;
80679;SDS011;70043;51.982;-8.514;2023-07-13T14:33:49;1.80;;;0.75;;
80679;SDS011;70043;51.982;-8.514;2023-07-13T14:36:25;0.90;;;0.45;;
80679;SDS011;70043;51.982;-8.514;2023-07-13T14:38:55;4.25;;;0.50;;
80679;SDS011;70043;51.982;-8.514;2023-07-13T14:41:24;2.47;;;0.70;;
80679;SDS011;70043;51.982;-8.514;2023-07-13T14:43:53;1.98;;;0.65;;
80679;SDS011;70043;51.982;-8.514;2023-07-13T14:46:24;2.22;;;0.60;;
80679;SDS011;70043;51.982;-8.514;2023-07-13T14:48:59;1.05;;;0.50;;
80679;SDS011;70043;51.982;-8.514;2023-07-13T14:51:31;1.10;;;0.60;;
80679;SDS011;70043;51.982;-8.514;2023-07-13T14:54:01;1.83;;;0.73;;
80679;SDS011;70043;51.982;-8.514;2023-07-13T14:56:32;1.73;;;0.88;;
80679;SDS011;70043;51.982;-8.514;2023-07-13T14:59:05;1.55;;;0.98;;
80679;SDS011;70043;51.982;-8.514;2023-07-13T15:01:33;2.05;;;1.00;;
80679;SDS011;70043;51.982;-8.514;2023-07-13T15:04:02;1.15;;;0.85;;
80679;SDS011;70043;51.982;-8.514;2023-07-13T15:06:50;3.58;;;1.35;;
80679;SDS011;70043;51.982;-8.514;2023-07-13T15:09:21;1.40;;;0.82;;
80679;SDS011;70043;51.982;-8.514;2023-07-13T15:11:51;3.08;;;0.73;;
80679;SDS011;70043;51.982;-8.514;2023-07-13T15:14:19;1.20;;;0.88;;
80679;SDS011;70043;51.982;-8.514;2023-07-13T15:16:49;3.00;;;1.02;;
80679;SDS011;70043;51.982;-8.514;2023-07-13T15:19:19;2.20;;;0.98;;
80679;SDS011;70043;51.982;-8.514;2023-07-13T15:21:53;2.65;;;1.20;;
80679;SDS011;70043;51.982;-8.514;2023-07-13T15:24:22;1.60;;;1.17;;